createdAt,value
2022-10-29T00:02:03.862Z,16.00
2022-10-29T00:04:31.188Z,16.00
2022-10-29T00:06:57.902Z,16.00
2022-10-29T00:09:24.623Z,16.00
2022-10-29T00:11:51.316Z,15.80
2022-10-29T00:14:18.005Z,15.80
2022-10-29T00:16:44.658Z,15.70
2022-10-29T00:19:11.307Z,15.90
2022-10-29T00:21:39.696Z,15.80
2022-10-29T00:24:06.884Z,15.70
2022-10-29T00:26:33.612Z,15.50
2022-10-29T00:29:00.298Z,15.70
2022-10-29T00:31:27.197Z,15.60
2022-10-29T00:33:55.206Z,15.50
2022-10-29T00:36:27.946Z,15.50
2022-10-29T00:38:55.058Z,15.30
2022-10-29T00:41:26.512Z,15.30
2022-10-29T00:44:13.053Z,15.30
2022-10-29T00:46:41.738Z,15.20
2022-10-29T00:49:08.769Z,15.10
2022-10-29T00:51:36.558Z,15.20
2022-10-29T00:54:07.550Z,15.20
2022-10-29T00:56:38.020Z,15.20
2022-10-29T00:59:07.318Z,15.00
2022-10-29T01:01:34.721Z,15.10
2022-10-29T01:04:02.832Z,15.10
2022-10-29T01:06:30.935Z,15.10
2022-10-29T01:08:59.057Z,15.20
2022-10-29T01:11:28.415Z,15.00
2022-10-29T01:14:32.442Z,14.90
2022-10-29T01:17:28.824Z,15.00
2022-10-29T01:20:43.724Z,15.00
2022-10-29T01:23:33.113Z,15.10
2022-10-29T01:26:17.845Z,15.10
2022-10-29T01:29:05.745Z,14.90
2022-10-29T01:31:47.274Z,15.00
2022-10-29T01:34:27.295Z,15.10
2022-10-29T01:36:59.995Z,15.20
2022-10-29T01:39:44.810Z,15.00
2022-10-29T01:42:16.772Z,14.90
2022-10-29T01:44:53.504Z,15.00
2022-10-29T01:47:24.232Z,15.20
2022-10-29T01:49:54.916Z,15.10
2022-10-29T01:52:25.446Z,15.00
2022-10-29T01:54:54.002Z,15.10
2022-10-29T01:57:31.037Z,14.90
2022-10-29T02:00:05.486Z,14.90
2022-10-29T02:03:00.264Z,14.80
2022-10-29T02:05:48.843Z,14.80
2022-10-29T02:08:47.988Z,14.60
2022-10-29T02:11:52.448Z,14.60
2022-10-29T02:14:40.217Z,14.60
2022-10-29T02:17:07.661Z,14.80
2022-10-29T02:19:36.020Z,14.80
2022-10-29T02:22:03.085Z,14.80
2022-10-29T02:24:29.797Z,14.80
2022-10-29T02:26:56.450Z,14.80
2022-10-29T02:29:23.180Z,14.60
2022-10-29T02:31:49.877Z,14.60
2022-10-29T02:34:16.631Z,14.70
2022-10-29T02:36:43.365Z,14.80
2022-10-29T02:39:10.030Z,14.80
2022-10-29T02:41:36.748Z,14.80
2022-10-29T02:44:03.504Z,14.70
2022-10-29T02:46:30.326Z,14.80
2022-10-29T02:48:57.205Z,14.80
2022-10-29T02:51:23.938Z,14.80
2022-10-29T03:10:39.249Z,14.80
2022-10-29T03:13:09.488Z,14.80
2022-10-29T03:22:21.948Z,15.20
2022-10-29T03:24:49.451Z,15.00
2022-10-29T03:27:17.152Z,15.00
2022-10-29T03:29:44.611Z,15.00
2022-10-29T03:32:15.177Z,14.90
2022-10-29T03:34:42.650Z,14.80
2022-10-29T03:37:10.504Z,14.50
2022-10-29T03:39:37.778Z,14.40
2022-10-29T03:42:05.717Z,14.50
2022-10-29T03:44:35.790Z,14.50
2022-10-29T03:47:03.065Z,14.50
2022-10-29T03:49:30.732Z,14.50
2022-10-29T03:51:58.032Z,14.70
2022-10-29T03:54:25.480Z,14.80
2022-10-29T03:56:53.369Z,14.80
2022-10-29T03:59:20.854Z,14.80
2022-10-29T04:01:48.393Z,14.80
2022-10-29T04:04:15.844Z,15.00
2022-10-29T04:06:43.355Z,15.10
2022-10-29T04:09:10.897Z,15.10
2022-10-29T04:11:38.714Z,15.10
2022-10-29T04:14:06.103Z,15.20
2022-10-29T04:16:33.519Z,15.20
2022-10-29T04:19:01.314Z,15.20
2022-10-29T04:23:25.446Z,15.30
2022-10-29T04:29:51.524Z,15.40
2022-10-29T04:32:19.230Z,15.50
2022-10-29T04:34:46.866Z,15.50
2022-10-29T04:37:14.301Z,15.40
2022-10-29T04:39:41.814Z,15.50
2022-10-29T04:42:09.279Z,15.50
2022-10-29T04:44:36.711Z,15.60
2022-10-29T04:47:04.148Z,15.60
2022-10-29T04:49:31.870Z,15.60
2022-10-29T04:51:59.280Z,15.60
2022-10-29T04:54:26.531Z,15.50
2022-10-29T04:56:54.213Z,15.60
2022-10-29T04:59:21.663Z,15.50
2022-10-29T05:01:49.169Z,15.30
2022-10-29T05:04:16.689Z,15.30
2022-10-29T05:06:44.013Z,15.30
2022-10-29T05:09:11.410Z,15.30
2022-10-29T05:11:38.883Z,15.30
2022-10-29T05:14:05.766Z,15.20
2022-10-29T05:16:33.347Z,15.10
2022-10-29T05:19:00.913Z,15.10
2022-10-29T05:21:28.398Z,15.10
2022-10-29T05:23:55.935Z,15.30
2022-10-29T05:26:23.382Z,15.40
2022-10-29T05:28:51.892Z,15.40
2022-10-29T05:31:19.968Z,15.40
2022-10-29T05:33:55.996Z,15.50
2022-10-29T05:36:23.712Z,15.50
2022-10-29T05:38:51.338Z,15.40
2022-10-29T05:41:18.680Z,15.50
2022-10-29T05:43:49.698Z,15.50
2022-10-29T05:46:17.156Z,15.70
2022-10-29T05:48:44.601Z,15.50
2022-10-29T05:51:11.748Z,15.50
2022-10-29T05:53:39.233Z,15.30
2022-10-29T05:56:07.347Z,15.50
2022-10-29T05:58:34.872Z,15.60
2022-10-29T06:01:07.651Z,15.60
2022-10-29T06:03:35.265Z,15.80
2022-10-29T06:06:04.552Z,15.80
2022-10-29T06:08:32.198Z,15.80
2022-10-29T06:11:03.248Z,15.80
2022-10-29T06:13:30.707Z,15.80
2022-10-29T06:16:00.318Z,16.00
2022-10-29T06:18:28.483Z,16.20
2022-10-29T06:21:00.150Z,16.20
2022-10-29T06:23:28.558Z,16.40
2022-10-29T06:25:56.088Z,16.50
2022-10-29T06:28:23.413Z,16.60
2022-10-29T06:30:52.205Z,16.80
2022-10-29T06:33:20.359Z,16.80
2022-10-29T06:35:48.101Z,16.90
2022-10-29T06:38:15.905Z,16.80
2022-10-29T06:40:43.844Z,16.60
2022-10-29T06:43:12.814Z,16.70
2022-10-29T06:45:40.542Z,17.20
2022-10-29T06:48:08.113Z,16.90
2022-10-29T06:50:35.984Z,17.50
2022-10-29T06:53:08.287Z,17.80
2022-10-29T06:55:36.025Z,18.00
2022-10-29T06:58:11.023Z,18.00
2022-10-29T07:00:38.757Z,17.80
2022-10-29T07:03:06.620Z,18.10
2022-10-29T07:05:35.817Z,17.90
2022-10-29T07:08:03.325Z,18.20
2022-10-29T07:10:32.578Z,18.20
2022-10-29T07:13:00.734Z,18.60
2022-10-29T07:15:30.736Z,18.80
2022-10-29T07:18:07.257Z,19.20
2022-10-29T07:20:37.840Z,19.40
2022-10-29T07:23:05.802Z,19.40
2022-10-29T07:25:33.990Z,19.90
2022-10-29T07:28:20.708Z,19.60
2022-10-29T07:30:50.567Z,20.10
2022-10-29T07:33:18.013Z,20.60
2022-10-29T07:35:47.945Z,21.00
2022-10-29T07:38:14.712Z,20.90
2022-10-29T07:40:48.877Z,21.10
2022-10-29T07:43:17.272Z,21.20
2022-10-29T07:45:51.934Z,21.40
2022-10-29T07:48:29.878Z,21.70
2022-10-29T07:50:59.758Z,21.40
2022-10-29T07:53:27.265Z,21.70
2022-10-29T07:55:58.150Z,21.90
2022-10-29T07:58:26.498Z,22.00
2022-10-29T08:00:53.802Z,22.20
2022-10-29T08:03:21.344Z,21.40
2022-10-29T08:05:55.376Z,22.10
2022-10-29T08:08:23.731Z,22.40
2022-10-29T08:10:50.651Z,22.40
2022-10-29T08:13:18.059Z,22.20
2022-10-29T08:15:50.414Z,22.30
2022-10-29T08:18:18.074Z,22.20
2022-10-29T08:20:45.239Z,22.60
2022-10-29T08:23:13.803Z,22.30
2022-10-29T08:25:42.723Z,21.80
2022-10-29T08:28:11.818Z,21.30
2022-10-29T08:30:39.863Z,22.20
2022-10-29T08:33:07.249Z,22.50
2022-10-29T08:35:37.394Z,22.10
2022-10-29T08:38:04.670Z,22.30
2022-10-29T08:40:55.702Z,21.30
2022-10-29T08:43:28.973Z,22.00
2022-10-29T08:45:57.148Z,22.40
2022-10-29T08:48:36.260Z,22.10
2022-10-29T08:51:18.726Z,22.40
2022-10-29T08:54:10.302Z,22.50
2022-10-29T08:56:43.104Z,22.30
2022-10-29T08:59:14.656Z,22.10
2022-10-29T09:01:42.251Z,22.10
2022-10-29T09:04:26.057Z,21.80
2022-10-29T09:07:08.406Z,22.40
2022-10-29T09:09:47.576Z,22.40
2022-10-29T09:12:51.184Z,22.40
2022-10-29T09:15:37.331Z,22.40
2022-10-29T09:18:23.811Z,23.00
2022-10-29T09:20:59.654Z,22.80
2022-10-29T09:23:30.128Z,22.80
2022-10-29T09:26:04.540Z,22.90
2022-10-29T09:28:43.974Z,23.40
2022-10-29T09:31:17.595Z,23.40
2022-10-29T09:33:48.454Z,22.70
2022-10-29T09:36:21.952Z,22.20
2022-10-29T09:39:12.446Z,21.90
2022-10-29T09:41:40.828Z,22.20
2022-10-29T09:44:53.622Z,22.20
2022-10-29T09:47:29.769Z,22.70
2022-10-29T09:50:16.669Z,22.50
2022-10-29T09:52:48.642Z,22.40
2022-10-29T09:55:38.496Z,22.50
2022-10-29T09:58:06.977Z,21.90
2022-10-29T10:00:35.770Z,22.50
2022-10-29T10:03:19.001Z,23.10
2022-10-29T10:06:07.609Z,23.00
2022-10-29T10:08:35.849Z,23.20
2022-10-29T10:11:07.843Z,22.40
2022-10-29T10:13:52.761Z,22.50
2022-10-29T10:16:28.678Z,22.90
2022-10-29T10:18:56.210Z,22.80
2022-10-29T10:21:32.872Z,23.10
2022-10-29T10:24:00.969Z,22.80
2022-10-29T10:26:34.992Z,22.30
2022-10-29T10:29:09.732Z,22.70
2022-10-29T10:31:37.171Z,22.80
2022-10-29T10:34:16.851Z,22.70
2022-10-29T10:36:47.401Z,22.50
2022-10-29T10:39:23.777Z,22.60
2022-10-29T10:41:54.334Z,22.60
2022-10-29T10:44:23.602Z,23.00
2022-10-29T10:46:53.413Z,23.30
2022-10-29T10:49:32.916Z,23.10
2022-10-29T10:52:01.973Z,23.10
2022-10-29T10:54:50.331Z,23.10
2022-10-29T10:57:25.671Z,23.60
2022-10-29T11:00:07.943Z,24.10
2022-10-29T11:02:50.377Z,23.50
2022-10-29T11:05:21.050Z,23.50
2022-10-29T11:07:59.443Z,23.30
2022-10-29T11:10:35.186Z,23.70
2022-10-29T11:13:06.634Z,23.50
2022-10-29T11:15:39.540Z,23.30
2022-10-29T11:18:31.126Z,23.10
2022-10-29T11:21:06.498Z,22.70
2022-10-29T11:23:53.901Z,22.80
2022-10-29T11:26:32.984Z,23.00
2022-10-29T11:29:11.876Z,22.70
2022-10-29T11:31:56.196Z,22.70
2022-10-29T11:34:43.998Z,23.00
2022-10-29T11:37:37.155Z,23.10
2022-10-29T11:40:12.649Z,23.10
2022-10-29T11:42:41.471Z,22.50
2022-10-29T11:45:15.535Z,22.80
2022-10-29T11:47:57.885Z,22.60
2022-10-29T11:50:40.894Z,22.80
2022-10-29T11:53:42.313Z,22.60
2022-10-29T11:56:09.516Z,22.20
2022-10-29T11:58:41.771Z,22.50
2022-10-29T12:01:21.099Z,22.50
2022-10-29T12:04:06.554Z,22.50
2022-10-29T12:06:40.273Z,22.80
2022-10-29T12:09:32.598Z,22.30
2022-10-29T12:12:13.339Z,23.00
2022-10-29T12:14:47.234Z,23.20
2022-10-29T12:17:36.728Z,22.70
2022-10-29T12:20:16.200Z,22.40
2022-10-29T12:22:52.473Z,22.50
2022-10-29T12:25:35.470Z,22.30
2022-10-29T12:28:27.281Z,22.90
2022-10-29T12:30:57.796Z,22.50
2022-10-29T12:33:51.087Z,22.70
2022-10-29T12:36:32.476Z,22.80
2022-10-29T12:39:01.049Z,22.30
2022-10-29T12:41:32.916Z,22.70
2022-10-29T12:44:09.863Z,22.20
2022-10-29T12:47:10.474Z,22.40
2022-10-29T12:49:43.950Z,22.10
2022-10-29T12:52:40.818Z,22.50
2022-10-29T12:55:10.558Z,23.00
2022-10-29T12:57:38.115Z,22.90
2022-10-29T13:00:24.198Z,22.40
2022-10-29T13:02:52.876Z,21.90
2022-10-29T13:05:36.085Z,22.40
2022-10-29T13:08:03.555Z,22.50
2022-10-29T13:10:33.978Z,22.60
2022-10-29T13:13:16.084Z,22.80
2022-10-29T13:16:09.243Z,23.40
2022-10-29T13:19:14.679Z,22.90
2022-10-29T13:22:04.482Z,22.40
2022-10-29T13:24:34.471Z,22.60
2022-10-29T13:27:22.689Z,22.30
2022-10-29T13:30:10.632Z,21.90
2022-10-29T13:32:39.648Z,22.50
2022-10-29T13:35:19.353Z,22.10
2022-10-29T13:37:48.115Z,22.10
2022-10-29T13:40:33.945Z,21.60
2022-10-29T13:43:12.538Z,22.10
2022-10-29T13:45:42.897Z,22.60
2022-10-29T13:48:34.158Z,22.60
2022-10-29T13:51:06.821Z,22.70
2022-10-29T13:53:52.598Z,22.90
2022-10-29T13:56:45.169Z,22.70
2022-10-29T13:59:26.058Z,22.80
2022-10-29T14:02:14.060Z,22.70
2022-10-29T14:04:49.731Z,22.70
2022-10-29T14:07:21.962Z,22.90
2022-10-29T14:09:53.951Z,22.70
2022-10-29T14:12:26.539Z,22.30
2022-10-29T14:14:57.024Z,21.80
2022-10-29T14:17:24.574Z,22.20
2022-10-29T14:19:53.286Z,22.30
2022-10-29T14:22:32.472Z,22.20
2022-10-29T14:25:02.418Z,22.40
2022-10-29T14:27:30.830Z,22.10
2022-10-29T14:30:18.067Z,20.80
2022-10-29T14:32:46.946Z,21.50
2022-10-29T14:35:17.685Z,21.50
2022-10-29T14:37:49.241Z,20.90
2022-10-29T14:40:21.521Z,20.90
2022-10-29T14:42:55.906Z,21.10
2022-10-29T14:45:30.183Z,21.10
2022-10-29T14:48:03.338Z,21.20
2022-10-29T14:50:31.609Z,21.40
2022-10-29T14:53:04.573Z,21.20
2022-10-29T14:55:39.044Z,21.00
2022-10-29T14:58:12.277Z,21.20
2022-10-29T15:00:51.464Z,21.00
2022-10-29T15:03:22.618Z,21.00
2022-10-29T15:05:51.624Z,20.70
2022-10-29T15:08:29.506Z,20.90
2022-10-29T15:10:58.367Z,20.80
2022-10-29T15:13:29.600Z,21.00
2022-10-29T15:16:05.949Z,20.60
2022-10-29T15:18:34.567Z,20.80
2022-10-29T15:21:02.904Z,20.70
2022-10-29T15:23:42.133Z,20.80
2022-10-29T15:26:19.474Z,20.70
2022-10-29T15:28:49.031Z,20.70
2022-10-29T15:31:31.064Z,20.70
2022-10-29T15:34:07.205Z,20.60
2022-10-29T15:36:56.187Z,20.40
2022-10-29T15:39:29.027Z,20.40
2022-10-29T15:41:59.727Z,20.30
2022-10-29T15:44:40.359Z,20.40
2022-10-29T15:47:26.212Z,20.20
2022-10-29T15:49:53.260Z,20.20
2022-10-29T15:52:22.209Z,20.20
2022-10-29T15:54:49.710Z,20.20
2022-10-29T15:57:18.475Z,20.30
2022-10-29T15:59:46.035Z,20.30
2022-10-29T16:02:15.185Z,20.10
2022-10-29T16:04:42.594Z,20.10
2022-10-29T16:07:14.456Z,20.10
2022-10-29T16:09:48.886Z,19.90
2022-10-29T16:12:16.849Z,19.80
2022-10-29T16:14:44.327Z,19.80
2022-10-29T16:17:20.723Z,19.80
2022-10-29T16:19:48.758Z,19.80
2022-10-29T16:22:23.298Z,19.80
2022-10-29T16:24:50.958Z,19.80
2022-10-29T16:27:18.633Z,19.80
2022-10-29T16:29:52.418Z,19.70
2022-10-29T16:32:22.669Z,19.70
2022-10-29T16:34:50.495Z,19.60
2022-10-29T16:37:19.541Z,19.70
2022-10-29T16:39:46.494Z,19.70
2022-10-29T16:42:33.344Z,19.60
2022-10-29T16:45:00.783Z,19.70
2022-10-29T16:47:28.598Z,19.70
2022-10-29T16:49:59.877Z,19.70
2022-10-29T16:52:29.512Z,19.70
2022-10-29T16:54:57.612Z,19.60
2022-10-29T16:57:25.441Z,19.60
2022-10-29T16:59:54.308Z,19.60
2022-10-29T17:02:21.432Z,19.60
2022-10-29T17:04:48.821Z,19.50
2022-10-29T17:07:18.744Z,19.50
2022-10-29T17:09:45.645Z,19.50
2022-10-29T17:12:15.837Z,19.40
2022-10-29T17:14:43.244Z,19.50
2022-10-29T17:17:10.857Z,19.30
2022-10-29T17:19:37.729Z,19.40
2022-10-29T17:22:06.154Z,19.30
2022-10-29T17:24:33.074Z,19.30
2022-10-29T17:27:00.771Z,19.30
2022-10-29T17:29:27.743Z,19.30
2022-10-29T17:31:56.910Z,19.30
2022-10-29T17:34:24.570Z,19.40
2022-10-29T17:37:09.842Z,19.30
2022-10-29T17:39:36.655Z,19.30
2022-10-29T17:42:03.820Z,19.30
2022-10-29T17:44:32.560Z,19.40
2022-10-29T17:46:59.584Z,19.30
2022-10-29T17:49:27.353Z,19.30
2022-10-29T17:51:54.256Z,19.20
2022-10-29T17:54:21.664Z,19.20
2022-10-29T17:56:52.714Z,19.10
2022-10-29T17:59:19.604Z,19.10
2022-10-29T18:01:46.643Z,19.00
2022-10-29T18:04:14.316Z,19.10
2022-10-29T18:06:41.282Z,19.00
2022-10-29T18:09:33.677Z,19.10
2022-10-29T18:12:00.483Z,19.00
2022-10-29T18:14:27.347Z,19.00
2022-10-29T18:16:54.271Z,18.90
2022-10-29T18:19:21.262Z,19.00
2022-10-29T18:21:48.191Z,19.00
2022-10-29T18:24:15.541Z,19.00
2022-10-29T18:26:42.545Z,18.90
2022-10-29T18:29:16.270Z,18.90
2022-10-29T18:31:45.782Z,18.90
2022-10-29T18:34:15.301Z,18.90
2022-10-29T18:36:43.019Z,18.80
2022-10-29T18:39:10.276Z,18.80
2022-10-29T18:41:37.583Z,18.70
2022-10-29T18:44:04.798Z,18.60
2022-10-29T18:46:32.854Z,18.70
2022-10-29T18:49:00.958Z,18.70
2022-10-29T18:51:31.371Z,18.70
2022-10-29T18:54:03.069Z,18.70
2022-10-29T18:56:34.136Z,18.50
2022-10-29T18:59:02.700Z,18.60
2022-10-29T19:01:36.695Z,18.60
2022-10-29T19:04:38.193Z,18.60
2022-10-29T19:07:06.858Z,18.60
2022-10-29T19:09:34.297Z,18.50
2022-10-29T19:12:01.064Z,18.50
2022-10-29T19:14:28.186Z,18.60
2022-10-29T19:16:55.313Z,18.50
2022-10-29T19:19:24.016Z,18.40
2022-10-29T19:21:51.808Z,18.50
2022-10-29T19:24:18.759Z,18.30
2022-10-29T19:26:46.168Z,18.40
2022-10-29T19:29:15.405Z,18.40
2022-10-29T19:31:45.271Z,18.50
2022-10-29T19:34:12.050Z,18.40
2022-10-29T19:36:40.285Z,18.40
2022-10-29T19:39:07.611Z,18.40
2022-10-29T19:41:35.054Z,18.40
2022-10-29T19:44:02.978Z,18.40
2022-10-29T19:46:30.151Z,18.30
2022-10-29T19:51:41.441Z,18.30
2022-10-29T19:54:08.426Z,18.30
2022-10-29T19:56:35.543Z,18.40
2022-10-29T19:59:04.277Z,18.50
2022-10-29T20:01:31.931Z,18.50
2022-10-29T20:04:00.194Z,18.50
2022-10-29T20:06:27.812Z,18.40
2022-10-29T20:08:55.224Z,18.40
2022-10-29T20:11:22.605Z,18.50
2022-10-29T20:13:49.701Z,18.50
2022-10-29T20:16:19.975Z,18.60
2022-10-29T20:18:48.553Z,18.50
2022-10-29T20:21:16.597Z,18.60
2022-10-29T20:23:45.235Z,18.50
2022-10-29T20:26:13.408Z,18.50
2022-10-29T20:28:41.021Z,18.50
2022-10-29T20:31:13.803Z,18.60
2022-10-29T20:33:41.274Z,18.60
2022-10-29T20:36:11.263Z,18.60
2022-10-29T20:38:38.843Z,18.50
2022-10-29T20:41:06.535Z,18.40
2022-10-29T20:43:34.121Z,18.40
2022-10-29T20:46:04.806Z,18.40
2022-10-29T20:48:33.177Z,18.30
2022-10-29T20:51:00.085Z,18.30
2022-10-29T20:53:27.293Z,18.20
2022-10-29T20:55:54.639Z,18.20
2022-10-29T20:58:22.525Z,18.20
2022-10-29T21:00:50.003Z,18.20
2022-10-29T21:03:18.173Z,18.10
2022-10-29T21:05:45.364Z,18.00
2022-10-29T21:08:12.307Z,18.00
2022-10-29T21:10:39.326Z,18.00
2022-10-29T21:13:06.377Z,18.00
2022-10-29T21:15:37.899Z,18.00
2022-10-29T21:18:05.102Z,18.00
2022-10-29T21:20:33.808Z,18.00
2022-10-29T21:23:00.947Z,17.90
2022-10-29T21:25:27.901Z,17.90
2022-10-29T21:27:55.913Z,17.80
2022-10-29T21:30:22.970Z,17.90
2022-10-29T21:33:09.550Z,17.90
2022-10-29T21:35:39.584Z,17.90
2022-10-29T21:38:06.400Z,17.90
2022-10-29T21:40:33.588Z,17.90
2022-10-29T21:43:00.714Z,17.80
2022-10-29T21:45:27.585Z,17.90
2022-10-29T21:47:54.305Z,18.00
2022-10-29T21:50:21.051Z,17.90
2022-10-29T21:52:47.793Z,17.90
2022-10-29T21:55:14.668Z,17.90
2022-10-29T21:57:44.584Z,17.90
2022-10-29T22:00:13.580Z,17.60
2022-10-29T22:02:40.365Z,17.80
2022-10-29T22:05:07.481Z,17.80
2022-10-29T22:07:34.862Z,17.70
2022-10-29T22:10:01.898Z,17.80
2022-10-29T22:12:28.717Z,17.80
2022-10-29T22:14:55.630Z,17.70
2022-10-29T22:17:23.043Z,17.70
2022-10-29T22:19:50.799Z,17.80
2022-10-29T22:22:18.098Z,17.70
2022-10-29T22:24:45.551Z,17.80
2022-10-29T22:27:13.078Z,17.80
2022-10-29T22:29:40.595Z,17.80
2022-10-29T22:32:08.371Z,17.70
2022-10-29T22:34:35.899Z,17.70
2022-10-29T22:37:03.232Z,17.70
2022-10-29T22:39:31.352Z,17.50
2022-10-29T22:41:58.187Z,17.40
2022-10-29T22:44:25.895Z,17.50
2022-10-29T22:46:53.271Z,17.50
2022-10-29T22:49:20.886Z,17.40
2022-10-29T22:51:48.263Z,17.50
2022-10-29T22:54:15.832Z,17.50
2022-10-29T22:56:43.202Z,17.50
2022-10-29T22:59:10.155Z,17.50
2022-10-29T23:01:42.235Z,17.40
2022-10-29T23:04:12.812Z,17.40
2022-10-29T23:06:40.294Z,17.50
2022-10-29T23:09:07.972Z,17.50
2022-10-29T23:11:39.076Z,17.40
2022-10-29T23:14:07.087Z,17.50
2022-10-29T23:16:35.394Z,17.60
2022-10-29T23:19:05.462Z,17.50
2022-10-29T23:21:33.401Z,17.60
2022-10-29T23:24:00.988Z,17.50
2022-10-29T23:26:29.432Z,17.40
2022-10-29T23:28:57.295Z,17.50
2022-10-29T23:31:27.082Z,17.50
2022-10-29T23:33:56.708Z,17.20
2022-10-29T23:36:25.943Z,17.40
2022-10-29T23:38:57.149Z,17.50
2022-10-29T23:41:25.625Z,17.50
2022-10-29T23:43:53.221Z,17.50
2022-10-29T23:46:21.305Z,17.50
2022-10-29T23:48:48.223Z,17.50
2022-10-29T23:51:16.161Z,17.50
2022-10-29T23:53:43.573Z,17.40
2022-10-29T23:56:10.672Z,17.40
2022-10-29T23:58:37.511Z,17.30
